LiveATC.Net - Listen to live air traffic control over the Internet!

ICAO: KNUQ  IATA: NUQ   Airport: Moffett Federal Airfield
City: Mountain View   State/Province: California
Country: United States   Continent: North America
KNUQ METAR Weather: KNUQ 230756Z 00000KT 10SM CLR 07/03 A3017 RMK AO2 SLP219 T00720028 401670072
KNUQ Flight Activity (FlightAware)
KNUQ Airport Info   (AirNav) (iFlightPlanner)
KNUQ VFR Sectional Chart   (iFlightPlanner) 
KNUQ IFR Low Chart   (iFlightPlanner) 
KNUQ Gnd/Twr
Feed Status: UP   Listeners: 0
Listen right in your browser - requires Flash (in browser, requires Flash)
Click here to listen with your own player (launches your MP3 player)
KNUQ Gnd/Twr Audio Archives
Moffett Ground121.850
Moffett Ground336.400
Moffett Tower119.550
Moffett Tower346.250
Stanford University Hospital Heliport130.050


Unauthorized use prohibited. See Terms of Service

Find LiveATC Audio Streams

Airport/ARTCC Code

Frequency Search
(e.g., 124.400, 128.75)
Site-wide search

Browse LiveATC Feeds
LiveATC Coverage Map
Top 50 LiveATC Feeds
Bad Weather Areas

Offer a LiveATC Feed
Press Inquiries

LiveATC on iPhone
LiveATC on Android

Windows Phone
Windows 8/10

LiveATC Mobile
(Mobile browser)

ATC Audio Archives
Interesting Recordings

LiveATC Forums

Home Page
Make a Donation
Terms of Use
Privacy Policy

Canadian Air Freqs


FAA Airport Status
Nat'l Airspace Status
Arrival Demand Charts

Server Software By: